Milano / Bresso Airport LIMB

Flugplatz Daten

Name: Milano / Bresso Airport

Ident: LIMB

Lat: 45,54219818

Long: 9,20333004

Platzhöhe: 484 ft

IataCode:

City: Milano

Homepage: http://www.aeroclubmilano.it

Metar

2021/12/03 16:00
WAAA 031600Z 05004KT 8000 FEW018CB SCT019 25/24 Q1011 NOSIG RMK CB IN CLIMB-OUT

Taf

Gewünschte Webcam nicht vorhanden? Dann fügen Sie eine hinzu. Sie wird dann so schnell wie möglich freigeschaltet
Url: Title: